Time;durP1;ratioP1;P1;durP2;ratioP2;P2;SDS_P1;SDS_P2;PMS_P1;PMS_P2;Temp;Humidity;BMP_temperature;BMP_pressure;BME280_temperature;BME280_humidity;BME280_pressure;Samples;Min_cycle;Max_cycle;Signal;HPM_P1;HPM_P2
2022/07/17 00:01:13;;;;;;;2.33;0.95;;;;;;;20.02;100.00;101747.41;5093735;28;20052;-89
2022/07/17 00:03:40;;;;;;;3.05;1.10;;;;;;;19.72;100.00;101711.13;5083584;28;20395;-89
2022/07/17 00:06:07;;;;;;;1.92;0.95;;;;;;;19.40;100.00;101681.16;5093155;28;20097;-88
2022/07/17 00:08:35;;;;;;;1.60;0.82;;;;;;;19.46;100.00;101699.41;5093855;28;20150;-89
2022/07/17 00:11:02;;;;;;;3.67;0.95;;;;;;;19.24;100.00;101689.19;5080026;28;20056;-88
2022/07/17 00:13:29;;;;;;;2.13;1.00;;;;;;;19.01;100.00;101665.81;5093131;28;20386;-89
2022/07/17 00:15:56;;;;;;;4.75;1.23;;;;;;;19.37;100.00;101702.63;5087501;28;20483;-89
2022/07/17 00:18:23;;;;;;;2.70;1.10;;;;;;;19.51;100.00;101712.38;5084784;28;20089;-89
2022/07/17 00:20:49;;;;;;;3.53;1.00;;;;;;;19.63;100.00;101714.31;5087407;28;20044;-88
2022/07/17 00:23:18;;;;;;;4.18;1.08;;;;;;;19.59;100.00;101714.59;5085220;28;20482;-88
2022/07/17 00:25:46;;;;;;;2.40;1.00;;;;;;;19.80;100.00;101723.13;5087242;28;20064;-89
2022/07/17 00:28:14;;;;;;;4.10;1.38;;;;;;;19.65;100.00;101712.41;5081591;28;20048;-88
2022/07/17 00:30:41;;;;;;;3.25;1.10;;;;;;;19.60;100.00;101700.34;5094339;28;20051;-89
2022/07/17 00:33:08;;;;;;;2.78;1.02;;;;;;;19.56;100.00;101705.00;5092892;28;20135;-89
2022/07/17 00:35:35;;;;;;;3.20;1.10;;;;;;;19.65;100.00;101693.81;5093124;28;20058;-88
2022/07/17 00:38:02;;;;;;;4.20;1.30;;;;;;;19.78;100.00;101682.47;5094342;28;20052;-88
2022/07/17 00:40:28;;;;;;;2.55;1.10;;;;;;;19.91;100.00;101707.34;5093264;28;20056;-88
2022/07/17 00:42:56;;;;;;;3.95;1.00;;;;;;;19.62;100.00;101666.59;5092916;28;20044;-88
2022/07/17 00:45:24;;;;;;;3.42;1.10;;;;;;;19.54;100.00;101681.19;5092962;28;20105;-89
2022/07/17 00:47:56;;;;;;;3.75;1.08;;;;;;;19.59;100.00;101694.19;5092938;28;20047;-89
2022/07/17 00:50:28;;;;;;;2.83;1.10;;;;;;;19.58;100.00;101670.38;5094170;28;20060;-88
2022/07/17 00:52:55;;;;;;;2.25;1.00;;;;;;;19.65;100.00;101675.22;5086568;28;20139;-88
2022/07/17 00:55:23;;;;;;;5.13;1.42;;;;;;;19.80;100.00;101701.84;5089978;28;20232;-88
2022/07/17 00:58:12;;;;;;;3.25;1.00;;;;;;;19.67;100.00;101685.75;5079779;28;20513;-88
2022/07/17 01:00:39;;;;;;;2.92;1.17;;;;;;;19.25;100.00;101658.22;5092161;28;20557;-89
2022/07/17 01:03:09;;;;;;;3.75;1.23;;;;;;;19.39;100.00;101633.44;5086597;28;20131;-89
2022/07/17 01:05:36;;;;;;;2.28;1.08;;;;;;;19.62;100.00;101661.28;5090940;28;20660;-89
2022/07/17 01:08:03;;;;;;;2.88;1.15;;;;;;;19.83;100.00;101696.34;5092878;28;20410;-89
2022/07/17 01:10:30;;;;;;;3.45;1.08;;;;;;;19.65;100.00;101651.31;5093842;28;20048;-89
2022/07/17 01:12:57;;;;;;;3.45;1.27;;;;;;;19.64;100.00;101681.50;5092155;28;20062;-89
2022/07/17 01:15:24;;;;;;;2.53;1.02;;;;;;;19.50;100.00;101644.31;5092885;28;20069;-89
2022/07/17 01:17:51;;;;;;;2.83;1.00;;;;;;;19.57;100.00;101645.63;5092812;28;20046;-89
2022/07/17 01:20:18;;;;;;;3.30;1.15;;;;;;;19.22;100.00;101610.59;5092383;28;20048;-89
2022/07/17 01:22:47;;;;;;;3.13;1.20;;;;;;;19.64;100.00;101678.00;5090282;28;20056;-89
2022/07/17 01:25:16;;;;;;;3.97;1.20;;;;;;;19.44;100.00;101666.78;5092187;28;20051;-89
2022/07/17 01:27:42;;;;;;;3.03;1.08;;;;;;;19.28;100.00;101628.78;5091853;28;20078;-88
2022/07/17 01:30:10;;;;;;;4.28;1.00;;;;;;;19.32;100.00;101652.44;5092400;28;20424;-89
2022/07/17 01:32:39;;;;;;;4.97;1.30;;;;;;;19.03;100.00;101669.22;5088792;28;20081;-88
2022/07/17 01:35:07;;;;;;;2.78;1.10;;;;;;;19.31;100.00;101666.63;5074943;28;20059;-89
2022/07/17 01:37:35;;;;;;;3.17;1.20;;;;;;;19.35;100.00;101662.00;5092416;28;20045;-90
2022/07/17 01:40:02;;;;;;;2.88;1.05;;;;;;;19.28;100.00;101656.22;5092044;28;20054;-89
2022/07/17 01:42:29;;;;;;;3.47;1.10;;;;;;;19.23;100.00;101660.06;5091802;28;20055;-89
2022/07/17 01:44:57;;;;;;;3.28;1.30;;;;;;;19.40;100.00;101649.31;5092124;28;20062;-89
2022/07/17 01:47:24;;;;;;;2.70;1.13;;;;;;;19.59;100.00;101656.16;5091674;28;20054;-89
2022/07/17 01:49:56;;;;;;;3.75;1.25;;;;;;;19.70;100.00;101653.69;5091748;28;20371;-89
2022/07/17 01:52:24;;;;;;;2.38;0.98;;;;;;;19.71;100.00;101671.34;5091385;28;20040;-89
2022/07/17 01:54:52;;;;;;;4.43;1.10;;;;;;;19.61;100.00;101673.72;5091644;28;20505;-88
2022/07/17 01:57:20;;;;;;;3.00;1.08;;;;;;;19.33;100.00;101670.03;5091695;28;20123;-89
2022/07/17 01:59:47;;;;;;;4.03;1.10;;;;;;;19.58;100.00;101676.53;5091870;28;20437;-89
2022/07/17 02:02:15;;;;;;;3.88;1.40;;;;;;;19.41;100.00;101690.84;5091303;28;20052;-89
2022/07/17 02:04:43;;;;;;;2.83;1.10;;;;;;;19.29;100.00;101697.75;5076626;28;20525;-89
2022/07/17 02:07:10;;;;;;;3.05;1.00;;;;;;;19.16;100.00;101689.66;5088748;28;20051;-88
2022/07/17 02:09:37;;;;;;;2.53;1.10;;;;;;;19.25;100.00;101690.06;5091835;28;20079;-89
2022/07/17 02:12:05;;;;;;;4.18;1.40;;;;;;;19.43;100.00;101680.16;5078068;28;20376;-89
2022/07/17 02:14:34;;;;;;;3.75;1.30;;;;;;;19.33;100.00;101670.03;5091121;28;20058;-88
2022/07/17 02:17:01;;;;;;;2.83;1.10;;;;;;;19.39;100.00;101657.34;5086217;28;20048;-88
2022/07/17 02:19:29;;;;;;;3.50;1.17;;;;;;;19.48;100.00;101660.31;5092007;28;20525;-89
2022/07/17 02:21:55;;;;;;;3.75;1.20;;;;;;;19.56;100.00;101672.28;5093026;28;20048;-88
2022/07/17 02:24:22;;;;;;;3.28;1.20;;;;;;;19.33;100.00;101662.09;5091002;28;20051;-88
2022/07/17 02:26:49;;;;;;;3.08;1.20;;;;;;;19.13;100.00;101650.00;5091334;28;20047;-88
2022/07/17 02:29:16;;;;;;;2.08;1.02;;;;;;;19.34;100.00;101649.69;5092613;28;20044;-89
2022/07/17 02:31:43;;;;;;;3.25;1.20;;;;;;;19.30;100.00;101651.66;5091368;28;20048;-89
2022/07/17 02:34:10;;;;;;;3.40;1.20;;;;;;;19.26;100.00;101657.25;5089563;28;20070;-89
2022/07/17 02:36:37;;;;;;;3.13;1.13;;;;;;;19.37;100.00;101638.88;5091316;28;20470;-88
2022/07/17 02:39:04;;;;;;;6.22;1.30;;;;;;;19.43;100.00;101654.44;5090487;28;20052;-88
2022/07/17 02:41:31;;;;;;;3.17;1.20;;;;;;;19.15;100.00;101645.44;5091396;28;20040;-87
2022/07/17 02:43:58;;;;;;;3.63;1.38;;;;;;;19.11;100.00;101661.66;5087536;28;20084;-88
2022/07/17 02:46:24;;;;;;;3.50;1.20;;;;;;;19.12;100.00;101664.25;5090756;28;20052;-88
2022/07/17 02:48:51;;;;;;;3.72;1.23;;;;;;;19.12;100.00;101660.72;5081937;28;20074;-88
2022/07/17 02:51:18;;;;;;;3.72;1.38;;;;;;;18.73;100.00;101664.72;5091405;28;20048;-88
2022/07/17 02:53:45;;;;;;;5.18;1.20;;;;;;;19.01;100.00;101645.41;5090591;28;20048;-88
2022/07/17 02:56:11;;;;;;;3.05;1.13;;;;;;;19.04;100.00;101634.63;5091106;28;20135;-89
2022/07/17 02:58:38;;;;;;;3.47;1.10;;;;;;;19.13;100.00;101647.34;5077032;28;20048;-89
2022/07/17 03:01:05;;;;;;;4.35;1.15;;;;;;;19.06;100.00;101643.34;5092673;28;20080;-88
2022/07/17 03:03:32;;;;;;;3.75;1.20;;;;;;;18.92;100.00;101635.34;5089606;28;20474;-88
2022/07/17 03:05:59;;;;;;;3.25;1.17;;;;;;;18.90;100.00;101648.69;5096011;28;20077;-88
2022/07/17 03:08:26;;;;;;;3.25;1.30;;;;;;;19.23;100.00;101662.72;5091440;28;20042;-88
2022/07/17 03:10:53;;;;;;;2.80;1.00;;;;;;;19.25;100.00;101656.41;5092755;28;20554;-88
2022/07/17 03:13:20;;;;;;;4.38;1.30;;;;;;;19.23;100.00;101649.44;5093225;28;20489;-89
2022/07/17 03:15:47;;;;;;;4.53;1.30;;;;;;;19.09;100.00;101652.94;5078043;28;20105;-88
2022/07/17 03:18:13;;;;;;;3.67;1.25;;;;;;;19.02;100.00;101648.94;5087461;28;20040;-88
2022/07/17 03:20:40;;;;;;;3.22;1.20;;;;;;;19.11;100.00;101646.59;5094466;28;20076;-89
2022/07/17 03:23:07;;;;;;;3.25;1.23;;;;;;;18.95;100.00;101629.88;5090002;28;20127;-88
2022/07/17 03:25:34;;;;;;;3.00;1.17;;;;;;;18.97;100.00;101626.16;5090089;28;20058;-89
2022/07/17 03:28:01;;;;;;;3.20;1.23;;;;;;;18.91;100.00;101641.59;5094465;28;20127;-88
2022/07/17 03:30:28;;;;;;;3.80;1.30;;;;;;;18.91;100.00;101647.78;5095135;28;20058;-88
2022/07/17 03:32:54;;;;;;;4.40;1.30;;;;;;;18.72;100.00;101642.63;5092552;28;20054;-89
2022/07/17 03:35:21;;;;;;;3.53;1.50;;;;;;;18.72;100.00;101639.97;5094602;28;20478;-88
2022/07/17 03:37:48;;;;;;;1.83;0.95;;;;;;;18.65;100.00;101633.31;5095002;28;20044;-89
2022/07/17 03:40:16;;;;;;;2.80;1.05;;;;;;;18.57;100.00;101640.84;5096041;28;20393;-89
2022/07/17 03:42:43;;;;;;;7.93;1.70;;;;;;;18.75;100.00;101634.50;5095055;28;20074;-89
2022/07/17 03:45:10;;;;;;;5.38;1.80;;;;;;;18.58;100.00;101635.47;5093319;28;20044;-89
2022/07/17 03:47:37;;;;;;;3.83;1.42;;;;;;;18.71;100.00;101637.41;5093529;28;20050;-89
2022/07/17 03:50:04;;;;;;;5.22;1.52;;;;;;;18.39;100.00;101642.75;5086912;28;20048;-89
2022/07/17 03:52:31;;;;;;;3.28;1.33;;;;;;;18.63;100.00;101634.34;5085084;28;20044;-89
2022/07/17 03:54:58;;;;;;;5.13;1.80;;;;;;;18.27;100.00;101627.53;5094259;28;20136;-89
2022/07/17 03:57:25;;;;;;;4.88;1.70;;;;;;;18.16;100.00;101614.88;5093798;28;20044;-89
2022/07/17 03:59:52;;;;;;;4.40;1.80;;;;;;;18.12;100.00;101610.69;5079508;28;20048;-89
2022/07/17 04:02:19;;;;;;;4.57;1.70;;;;;;;17.97;100.00;101615.03;5093129;28;20052;-88
2022/07/17 04:04:45;;;;;;;7.07;2.38;;;;;;;18.03;100.00;101602.31;5078455;28;20135;-89
2022/07/17 04:07:26;;;;;;;5.05;1.58;;;;;;;18.23;100.00;101594.19;5076279;28;20041;-89
2022/07/17 04:09:56;;;;;;;5.25;1.83;;;;;;;18.50;100.00;101611.19;5089287;28;20105;-89
2022/07/17 04:12:23;;;;;;;5.57;1.70;;;;;;;18.42;100.00;101608.13;5086933;28;20072;-88
2022/07/17 04:14:50;;;;;;;4.95;1.40;;;;;;;18.60;100.00;101606.22;5080189;28;20405;-89
2022/07/17 04:17:17;;;;;;;4.10;1.65;;;;;;;18.53;100.00;101597.75;5087883;28;20403;-88
2022/07/17 04:19:44;;;;;;;6.53;1.75;;;;;;;18.46;100.00;101599.03;5086009;28;20048;-88
2022/07/17 04:22:11;;;;;;;6.18;1.88;;;;;;;18.37;100.00;101618.97;5074661;28;20051;-88
2022/07/17 04:24:38;;;;;;;5.20;1.60;;;;;;;18.23;100.00;101620.69;5083315;28;20056;-87
2022/07/17 04:27:05;;;;;;;4.10;1.58;;;;;;;18.48;100.00;101638.72;5090879;28;20418;-89
2022/07/17 04:29:31;;;;;;;5.05;1.80;;;;;;;18.18;100.00;101632.44;5082286;28;20059;-89
2022/07/17 04:31:58;;;;;;;5.25;1.73;;;;;;;18.14;100.00;101635.31;5092975;28;20050;-88
2022/07/17 04:34:25;;;;;;;5.15;1.65;;;;;;;18.25;100.00;101627.63;5092927;28;20048;-88
2022/07/17 04:36:52;;;;;;;5.13;1.50;;;;;;;18.30;100.00;101611.47;5085187;28;20052;-89
2022/07/17 04:39:19;;;;;;;5.57;1.70;;;;;;;18.26;100.00;101629.34;5088846;28;20044;-89
2022/07/17 04:41:46;;;;;;;3.60;1.67;;;;;;;18.09;100.00;101624.13;5093170;28;20484;-89
2022/07/17 04:44:12;;;;;;;3.33;1.50;;;;;;;18.25;100.00;101622.31;5090063;28;20051;-87
2022/07/17 04:46:39;;;;;;;4.78;1.70;;;;;;;18.33;100.00;101620.09;5092819;28;20069;-88
2022/07/17 04:49:06;;;;;;;4.53;1.65;;;;;;;18.06;100.00;101616.31;5092600;28;20059;-88
2022/07/17 04:51:33;;;;;;;4.82;1.80;;;;;;;18.23;100.00;101624.19;5089293;28;20478;-88
2022/07/17 04:53:59;;;;;;;5.22;1.55;;;;;;;18.35;100.00;101626.16;5092560;28;20401;-87
2022/07/17 04:56:26;;;;;;;5.20;1.92;;;;;;;18.31;100.00;101631.72;5092605;28;20482;-88
2022/07/17 04:58:53;;;;;;;6.88;1.88;;;;;;;18.03;100.00;101620.84;5091751;28;20544;-87
2022/07/17 05:01:20;;;;;;;4.10;1.50;;;;;;;18.33;100.00;101638.66;5092925;28;20461;-87
2022/07/17 05:03:47;;;;;;;4.93;1.77;;;;;;;18.26;100.00;101639.09;5085519;28;20050;-88
2022/07/17 05:06:14;;;;;;;4.93;1.70;;;;;;;18.25;100.00;101640.03;5092123;28;20050;-88
2022/07/17 05:08:41;;;;;;;6.88;2.45;;;;;;;18.28;100.00;101647.81;5092543;28;20482;-88
2022/07/17 05:11:07;;;;;;;7.55;2.30;;;;;;;18.43;100.00;101669.94;5093372;28;20406;-87
2022/07/17 05:13:34;;;;;;;6.82;2.50;;;;;;;18.25;100.00;101626.78;5082977;28;20051;-87
2022/07/17 05:16:01;;;;;;;6.10;2.22;;;;;;;18.35;100.00;101651.81;5093141;28;20043;-87
2022/07/17 05:18:28;;;;;;;6.65;2.33;;;;;;;18.29;100.00;101660.97;5093706;28;20512;-87
2022/07/17 05:20:55;;;;;;;6.57;2.28;;;;;;;17.94;100.00;101642.56;5091719;28;20052;-87
2022/07/17 05:23:22;;;;;;;6.63;2.42;;;;;;;18.27;100.00;101646.09;5090459;28;20048;-87
2022/07/17 05:25:49;;;;;;;5.70;2.15;;;;;;;18.16;100.00;101636.09;5091211;28;20059;-87
2022/07/17 05:28:16;;;;;;;5.80;2.03;;;;;;;18.27;100.00;101636.34;5091184;28;20049;-87
2022/07/17 05:30:42;;;;;;;6.68;2.25;;;;;;;18.07;100.00;101632.16;5087863;28;20708;-87
2022/07/17 05:33:09;;;;;;;6.15;1.98;;;;;;;18.19;100.00;101620.88;5091437;28;20054;-88
2022/07/17 05:35:36;;;;;;;5.68;2.08;;;;;;;18.10;100.00;101618.72;5091578;28;20189;-87
2022/07/17 05:38:04;;;;;;;5.20;2.17;;;;;;;18.08;100.00;101641.81;5091221;28;20383;-88
2022/07/17 05:40:30;;;;;;;5.05;1.88;;;;;;;17.91;100.00;101634.78;5092478;28;20055;-88
2022/07/17 05:42:58;;;;;;;8.18;2.85;;;;;;;17.69;100.00;101648.28;5076203;28;20074;-88
2022/07/17 05:45:25;;;;;;;5.43;2.20;;;;;;;17.78;100.00;101654.91;5082461;28;20052;-88
2022/07/17 05:47:51;;;;;;;5.53;2.08;;;;;;;17.85;100.00;101648.34;5086046;28;20051;-88
2022/07/17 05:50:18;;;;;;;6.32;2.13;;;;;;;17.91;100.00;101636.56;5078013;28;20394;-87
2022/07/17 05:52:45;;;;;;;6.47;2.17;;;;;;;18.00;100.00;101628.97;5082351;28;20131;-88
2022/07/17 05:55:12;;;;;;;6.50;2.35;;;;;;;17.76;100.00;101631.13;5107322;28;20052;-88
2022/07/17 05:57:39;;;;;;;7.57;3.03;;;;;;;17.99;100.00;101650.28;5088463;28;20040;-88
2022/07/17 06:00:06;;;;;;;6.30;2.38;;;;;;;17.97;100.00;101646.81;5080112;28;20140;-88
2022/07/17 06:02:33;;;;;;;6.45;2.40;;;;;;;17.72;100.00;101632.22;5090041;28;20058;-88
2022/07/17 06:05:00;;;;;;;7.68;2.78;;;;;;;17.83;100.00;101621.91;5089647;28;20055;-88
2022/07/17 06:07:27;;;;;;;6.50;2.70;;;;;;;17.71;100.00;101603.19;5091898;28;20040;-88
2022/07/17 06:09:53;;;;;;;7.53;2.35;;;;;;;17.80;100.00;101634.47;5091620;28;20052;-88
2022/07/17 06:12:20;;;;;;;7.38;2.78;;;;;;;17.62;100.00;101615.97;5088360;28;20052;-88
2022/07/17 06:14:47;;;;;;;8.52;2.83;;;;;;;17.60;100.00;101633.75;5083249;28;20079;-87
2022/07/17 06:17:14;;;;;;;8.25;2.95;;;;;;;17.53;100.00;101628.84;5090641;28;20054;-87
2022/07/17 06:19:41;;;;;;;9.00;3.63;;;;;;;17.42;100.00;101634.69;5078073;28;20049;-87
2022/07/17 06:22:07;;;;;;;9.80;3.28;;;;;;;17.51;100.00;101625.41;5087671;28;20052;-87
2022/07/17 06:24:34;;;;;;;8.07;3.53;;;;;;;17.11;100.00;101608.97;5087899;28;20493;-87
2022/07/17 06:27:01;;;;;;;7.40;3.10;;;;;;;17.19;100.00;101610.31;5089221;28;20048;-87
2022/07/17 06:29:28;;;;;;;7.20;2.70;;;;;;;17.14;100.00;101598.22;5090661;28;20051;-87
2022/07/17 06:31:54;;;;;;;7.88;2.70;;;;;;;17.46;100.00;101634.47;5091575;28;20050;-87
2022/07/17 06:34:21;;;;;;;7.75;3.25;;;;;;;17.45;100.00;101648.63;5086547;28;20055;-87
2022/07/17 06:36:48;;;;;;;9.82;3.25;;;;;;;17.10;100.00;101609.91;5096273;28;20047;-87
2022/07/17 06:39:14;;;;;;;9.07;3.78;;;;;;;17.05;100.00;101615.41;5096055;28;20040;-87
2022/07/17 06:41:41;;;;;;;8.60;2.80;;;;;;;17.52;100.00;101650.97;5093148;28;20058;-88
2022/07/17 06:44:08;;;;;;;7.43;2.90;;;;;;;17.50;100.00;101660.78;5094609;28;20066;-87
2022/07/17 06:46:35;;;;;;;8.13;3.05;;;;;;;17.13;100.00;101600.00;5092577;28;20040;-87
2022/07/17 06:49:02;;;;;;;7.40;3.20;;;;;;;17.65;100.00;101675.84;5094544;28;20052;-87
2022/07/17 06:51:29;;;;;;;8.20;3.58;;;;;;;17.45;100.00;101666.31;5094458;28;20045;-87
2022/07/17 06:53:56;;;;;;;7.80;2.90;;;;;;;17.45;100.00;101663.66;5100949;28;20138;-87
2022/07/17 06:56:23;;;;;;;8.48;3.50;;;;;;;17.46;100.00;101666.25;5096469;28;20504;-87
2022/07/17 06:58:50;;;;;;;7.95;3.28;;;;;;;17.28;100.00;101632.75;5095662;28;20063;-87
2022/07/17 07:01:22;;;;;;;10.13;3.33;;;;;;;17.49;100.00;101670.50;5100015;28;20050;-88
2022/07/17 07:03:49;;;;;;;;;;;;;;;17.62;100.00;101676.03;5098806;28;20048;-85
2022/07/17 07:06:16;;;;;;;9.63;3.25;;;;;;;17.15;100.00;101644.94;5093550;28;19920;-85
2022/07/17 07:08:43;;;;;;;9.10;3.78;;;;;;;17.11;100.00;101646.03;5096242;28;20127;-86
2022/07/17 07:11:09;;;;;;;8.07;3.67;;;;;;;17.00;100.00;101633.34;5086873;28;20048;-87
2022/07/17 07:13:36;;;;;;;7.90;3.35;;;;;;;17.05;100.00;101644.53;5086296;28;20054;-84
2022/07/17 07:16:03;;;;;;;9.85;4.35;;;;;;;17.08;100.00;101642.56;5084269;28;20043;-85
2022/07/17 07:18:30;;;;;;;8.82;3.65;;;;;;;17.27;100.00;101671.63;5091288;28;20050;-85
2022/07/17 07:20:57;;;;;;;9.95;5.13;;;;;;;17.13;100.00;101652.94;5095253;28;20052;-85
2022/07/17 07:23:24;;;;;;;9.07;4.18;;;;;;;16.93;100.00;101616.03;5085087;28;20483;-85
2022/07/17 07:25:51;;;;;;;11.57;5.45;;;;;;;16.82;100.00;101654.44;5081257;28;20122;-86
2022/07/17 07:28:18;;;;;;;12.48;6.35;;;;;;;17.22;100.00;101671.00;5094826;28;20052;-85
2022/07/17 07:30:45;;;;;;;9.27;3.70;;;;;;;17.18;100.00;101650.91;5091726;28;20062;-85
2022/07/17 07:33:11;;;;;;;10.55;5.45;;;;;;;16.97;100.00;101636.97;5090384;28;20056;-85
2022/07/17 07:35:38;;;;;;;10.77;3.67;;;;;;;17.14;100.00;101636.13;5089830;28;20048;-85
2022/07/17 07:38:05;;;;;;;8.68;3.78;;;;;;;17.10;100.00;101628.41;5090655;28;20131;-85
2022/07/17 07:40:32;;;;;;;8.07;3.70;;;;;;;17.16;100.00;101636.06;5100695;28;20044;-85
2022/07/17 07:42:59;;;;;;;14.77;4.80;;;;;;;16.95;100.00;101624.78;5093291;28;20398;-86
2022/07/17 07:45:26;;;;;;;9.00;3.85;;;;;;;16.98;100.00;101624.59;5096175;28;20075;-86
2022/07/17 07:47:53;;;;;;;11.60;5.15;;;;;;;17.21;100.00;101621.66;5082711;28;20128;-85
2022/07/17 07:50:23;;;;;;;9.73;4.20;;;;;;;17.32;100.00;101607.03;5090366;28;20047;-85
2022/07/17 07:52:51;;;;;;;10.00;3.63;;;;;;;17.66;100.00;101661.69;5094856;28;20093;-86
2022/07/17 07:55:19;;;;;;;7.95;3.53;;;;;;;17.33;100.00;101598.97;5085275;28;20045;-85
2022/07/17 07:57:48;;;;;;;9.77;4.25;;;;;;;17.25;100.00;101585.31;5087762;28;20109;-86
2022/07/17 08:00:16;;;;;;;10.82;4.63;;;;;;;17.31;100.00;101598.19;5089786;28;20086;-86
2022/07/17 08:02:43;;;;;;;9.55;4.03;;;;;;;17.51;100.00;101628.06;5078780;28;20040;-86
2022/07/17 08:05:10;;;;;;;10.90;4.72;;;;;;;17.55;100.00;101609.31;5095319;28;20054;-85
2022/07/17 08:07:37;;;;;;;10.27;5.22;;;;;;;17.81;100.00;101652.94;5094974;28;20064;-86
2022/07/17 08:10:04;;;;;;;8.90;4.20;;;;;;;17.57;100.00;101639.19;5092136;28;20127;-85
2022/07/17 08:12:31;;;;;;;10.57;4.53;;;;;;;17.51;100.00;101628.06;5075972;28;20056;-85
2022/07/17 08:15:16;;;;;;;10.10;3.65;;;;;;;17.54;100.00;101636.69;5094475;28;20139;-85
2022/07/17 08:17:43;;;;;;;12.57;6.13;;;;;;;17.40;100.00;101625.97;5094940;28;20083;-85
2022/07/17 08:20:11;;;;;;;8.85;3.72;;;;;;;17.49;100.00;101625.50;5093562;28;20150;-85
2022/07/17 08:22:44;;;;;;;11.40;4.63;;;;;;;17.45;100.00;101621.31;5089956;28;20044;-86
2022/07/17 08:25:32;;;;;;;11.38;6.10;;;;;;;17.34;100.00;101606.00;5088461;28;20064;-85
2022/07/17 08:28:01;;;;;;;9.40;3.60;;;;;;;17.72;100.00;101653.41;5094681;28;20075;-85
2022/07/17 08:30:28;;;;;;;9.18;4.45;;;;;;;17.89;100.00;101654.34;5091539;28;20375;-85
2022/07/17 08:32:54;;;;;;;11.27;5.30;;;;;;;17.59;100.00;101618.78;5093049;28;20043;-85
2022/07/17 08:35:21;;;;;;;9.40;4.72;;;;;;;17.40;100.00;101600.34;5094025;28;20044;-85
2022/07/17 08:37:51;;;;;;;8.52;3.50;;;;;;;17.91;100.00;101629.47;5093435;28;20048;-85
2022/07/17 08:40:25;;;;;;;8.60;3.80;;;;;;;18.19;100.00;101635.91;5093204;28;20052;-84
2022/07/17 08:42:54;;;;;;;7.43;3.15;;;;;;;18.18;100.00;101637.72;5091265;28;20045;-85
2022/07/17 08:45:22;;;;;;;12.65;6.53;;;;;;;17.91;100.00;101618.88;5089776;28;20139;-85
2022/07/17 08:47:54;;;;;;;9.48;4.47;;;;;;;17.88;100.00;101592.53;5088787;28;20059;-85
2022/07/17 08:50:29;;;;;;;8.60;3.92;;;;;;;18.18;100.00;101628.91;5087618;28;20151;-85
2022/07/17 08:52:57;;;;;;;9.18;4.22;;;;;;;18.15;100.00;101621.09;5085786;28;20070;-86
2022/07/17 08:55:24;;;;;;;10.07;5.28;;;;;;;18.32;100.00;101599.81;5089471;28;20051;-85
2022/07/17 08:57:51;;;;;;;8.90;3.80;;;;;;;18.17;100.00;101568.91;5092577;28;20137;-85
2022/07/17 09:00:20;;;;;;;9.82;4.65;;;;;;;18.54;100.00;101619.84;5086913;28;20056;-84
2022/07/17 09:03:00;;;;;;;9.18;4.15;;;;;;;18.32;100.00;101628.97;5087919;28;20052;-85
2022/07/17 09:05:30;;;;;;;11.75;6.40;;;;;;;17.87;100.00;101563.53;5089960;28;20055;-85
2022/07/17 09:07:59;;;;;;;14.05;6.00;;;;;;;18.02;100.00;101567.94;5092806;28;20453;-85
2022/07/17 09:10:39;;;;;;;14.60;6.30;;;;;;;18.34;100.00;101623.59;5092388;28;20150;-85
2022/07/17 09:13:26;;;;;;;9.80;4.43;;;;;;;18.52;100.00;101617.25;5082653;28;20051;-85
2022/07/17 09:15:58;;;;;;;10.50;5.68;;;;;;;18.15;100.00;101579.59;5092217;28;20478;-85
2022/07/17 09:18:25;;;;;;;9.80;5.18;;;;;;;18.79;100.00;101608.66;5092223;28;20481;-84
2022/07/17 09:20:54;;;;;;;10.27;5.22;;;;;;;18.31;100.00;101587.53;5093430;28;20056;-85
2022/07/17 09:23:23;;;;;;;10.63;5.07;;;;;;;18.46;100.00;101561.06;5087710;28;20413;-87
2022/07/17 09:25:54;;;;;;;10.77;4.35;;;;;;;18.52;100.00;101556.28;5076366;28;20056;-84
2022/07/17 09:28:21;;;;;;;10.30;5.43;;;;;;;18.56;100.00;101594.06;5090982;28;20048;-85
2022/07/17 09:30:51;;;;;;;10.82;5.15;;;;;;;18.48;100.00;101577.75;5087267;28;20136;-85
2022/07/17 09:33:24;;;;;;;9.98;4.80;;;;;;;18.52;100.00;101548.31;5080314;28;20097;-84
2022/07/17 09:36:13;;;;;;;11.13;4.65;;;;;;;18.93;100.00;101618.50;5093444;28;20820;-84
2022/07/17 09:38:42;;;;;;;10.45;5.70;;;;;;;18.71;100.00;101606.44;5093189;28;20054;-84
2022/07/17 09:41:18;;;;;;;12.70;4.95;;;;;;;18.83;100.00;101609.38;5091824;28;20127;-84
2022/07/17 09:43:54;;;;;;;9.63;4.45;;;;;;;18.81;100.00;101579.38;5088903;28;20482;-84
2022/07/17 09:46:26;;;;;;;9.30;4.32;;;;;;;19.14;100.00;101611.03;5091642;28;20060;-84
2022/07/17 09:48:55;;;;;;;10.13;4.30;;;;;;;18.98;100.00;101587.22;5093585;28;20074;-85
2022/07/17 09:51:39;;;;;;;11.23;5.30;;;;;;;19.20;100.00;101570.03;5093181;28;20052;-84
2022/07/17 09:54:08;;;;;;;11.90;5.40;;;;;;;19.05;100.00;101591.22;5087993;28;20496;-84
2022/07/17 09:56:37;;;;;;;11.02;5.07;;;;;;;18.97;100.00;101581.06;5091858;28;20043;-84
2022/07/17 09:59:07;;;;;;;12.40;5.72;;;;;;;18.93;100.00;101568.09;5091072;28;20044;-85
2022/07/17 10:01:35;;;;;;;11.18;5.45;;;;;;;19.18;100.00;101535.59;5088946;28;20048;-85
2022/07/17 10:04:03;;;;;;;10.77;4.57;;;;;;;19.39;100.00;101586.53;5084377;28;20048;-85
2022/07/17 10:06:31;;;;;;;10.48;4.70;;;;;;;19.57;100.00;101608.44;5091264;28;20058;-85
2022/07/17 10:08:59;;;;;;;10.35;5.22;;;;;;;19.63;100.00;101605.41;5079980;28;20160;-85
2022/07/17 10:11:37;;;;;;;10.57;5.07;;;;;;;19.43;100.00;101584.53;5081930;28;20119;-86
2022/07/17 10:14:13;;;;;;;11.77;5.30;;;;;;;19.30;100.00;101576.44;5084689;28;20148;-86
2022/07/17 10:16:40;;;;;;;12.73;5.47;;;;;;;19.73;100.00;101587.09;5086686;28;20051;-86
2022/07/17 10:19:24;;;;;;;9.45;4.72;;;;;;;19.80;100.00;101558.38;5091556;28;20044;-85
2022/07/17 10:21:59;;;;;;;11.45;5.88;;;;;;;19.84;100.00;101563.38;5092181;28;20135;-86
2022/07/17 10:24:27;;;;;;;10.30;4.40;;;;;;;20.41;100.00;101575.66;5091301;28;20071;-85
2022/07/17 10:26:54;;;;;;;10.90;4.80;;;;;;;20.30;100.00;101544.44;5091612;28;20052;-86
2022/07/17 10:29:37;;;;;;;12.07;6.13;;;;;;;20.15;100.00;101524.19;5090756;28;20076;-86
2022/07/17 10:32:17;;;;;;;10.75;5.78;;;;;;;20.31;100.00;101537.34;5088888;28;20048;-86
2022/07/17 10:34:47;;;;;;;12.95;6.25;;;;;;;20.78;100.00;101541.28;5090037;28;20677;-86
2022/07/17 10:37:23;;;;;;;12.35;4.95;;;;;;;20.84;100.00;101569.28;5084952;28;20044;-86
2022/07/17 10:40:12;;;;;;;11.40;5.22;;;;;;;20.78;100.00;101548.44;5092440;28;20048;-86
2022/07/17 10:42:57;;;;;;;9.15;4.45;;;;;;;21.35;100.00;101561.31;5084966;28;20127;-85
2022/07/17 10:45:45;;;;;;;12.52;5.43;;;;;;;21.46;100.00;101560.63;5090985;28;20132;-85
2022/07/17 10:48:19;;;;;;;12.38;4.47;;;;;;;20.99;100.00;101525.66;5090438;28;20163;-86
2022/07/17 10:50:59;;;;;;;10.07;4.85;;;;;;;20.88;100.00;101532.72;5091108;28;20410;-85
2022/07/17 10:53:31;;;;;;;10.93;4.68;;;;;;;20.78;100.00;101527.97;5092007;28;20475;-86
2022/07/17 10:56:05;;;;;;;9.60;4.10;;;;;;;21.14;100.00;101517.56;5096042;28;20055;-86
2022/07/17 10:58:39;;;;;;;12.57;4.88;;;;;;;21.00;100.00;101539.81;5090910;28;20059;-86
2022/07/17 11:01:12;;;;;;;9.95;4.30;;;;;;;21.36;100.00;101554.22;5091491;28;20044;-86
2022/07/17 11:03:44;;;;;;;10.63;4.85;;;;;;;21.57;100.00;101544.72;5080711;28;20040;-87
2022/07/17 11:06:20;;;;;;;9.80;4.05;;;;;;;21.67;100.00;101544.91;5092278;28;20123;-86
2022/07/17 11:08:51;;;;;;;9.50;4.60;;;;;;;21.40;100.00;101548.53;5087213;28;20041;-86
2022/07/17 11:11:20;;;;;;;9.48;4.68;;;;;;;20.88;100.00;101495.44;5086369;28;20401;-87
2022/07/17 11:14:14;;;;;;;11.02;4.60;;;;;;;21.33;100.00;101511.81;5085640;28;20497;-87
2022/07/17 11:16:49;;;;;;;8.23;3.58;;;;;;;21.55;100.00;101545.81;5091205;28;20064;-86
2022/07/17 11:19:32;;;;;;;11.00;4.28;;;;;;;21.23;100.00;101515.13;5090239;28;20367;-86
2022/07/17 11:22:02;;;;;;;10.20;3.97;;;;;;;21.70;100.00;101543.84;5086428;28;20051;-84
2022/07/17 11:24:40;;;;;;;10.70;3.40;;;;;;;21.72;100.00;101520.59;5086536;28;20041;-86